createdAt,value
2022-08-11T00:08:24.383Z,20.1
2022-08-11T00:18:26.553Z,19.6
2022-08-11T00:28:29.181Z,18.8
2022-08-11T00:38:31.375Z,18.4
2022-08-11T00:58:36.157Z,17.9
2022-08-11T01:18:40.736Z,18
2022-08-11T01:28:42.805Z,17.9
2022-08-11T01:38:44.482Z,17.9
2022-08-11T01:48:46.530Z,18
2022-08-11T01:58:48.432Z,18.1
2022-08-11T02:08:50.971Z,18
2022-08-11T02:18:52.759Z,17.9
2022-08-11T02:28:54.410Z,17.7
2022-08-11T02:38:56.197Z,17.6
2022-08-11T02:48:58.111Z,17.5
2022-08-11T02:59:00.234Z,17.4
2022-08-11T03:09:02.262Z,17.3
2022-08-11T03:19:03.972Z,17.2
2022-08-11T03:29:05.908Z,17.1
2022-08-11T03:39:08.431Z,17.1
2022-08-11T03:49:10.565Z,17
2022-08-11T04:09:15.010Z,16.8
2022-08-11T04:19:17.550Z,16.7
2022-08-11T04:39:21.573Z,16.7
2022-08-11T04:49:24.314Z,16.9
2022-08-11T04:59:25.993Z,16.9
2022-08-11T05:09:27.770Z,16.9
2022-08-11T05:19:29.660Z,17.1
2022-08-11T05:29:31.842Z,17.3
2022-08-11T05:39:36.621Z,17.6
2022-08-11T05:49:36.415Z,18.2
2022-08-11T05:59:38.122Z,18.1
2022-08-11T06:09:40.492Z,18.4
2022-08-11T06:19:43.118Z,18.7
2022-08-11T06:29:46.920Z,19.2
2022-08-11T06:39:47.847Z,19.8
2022-08-11T06:49:50.041Z,20.3
2022-08-11T06:59:52.614Z,20.7
2022-08-11T07:09:55.029Z,21.3
2022-08-11T07:19:57.124Z,21.9
2022-08-11T07:29:59.717Z,22.3
2022-08-11T07:40:02.097Z,22.9
2022-08-11T07:50:04.656Z,23.7
2022-08-11T08:00:06.286Z,24.2
2022-08-11T08:10:08.635Z,24.8
2022-08-11T08:20:10.554Z,25.5
2022-08-11T08:30:12.208Z,25.9
2022-08-11T08:50:17.137Z,26.4
2022-08-11T09:00:22.894Z,27.3
2022-08-11T09:10:21.773Z,27.8
2022-08-11T09:20:24.256Z,27.5
2022-08-11T09:30:26.438Z,28.4
2022-08-11T09:40:28.818Z,28.6
2022-08-11T09:50:31.031Z,28.6
2022-08-11T10:00:32.973Z,29.1
2022-08-11T10:10:34.785Z,29.1
2022-08-11T10:20:37.061Z,29.6
2022-08-11T10:30:39.074Z,29.3
2022-08-11T10:40:40.973Z,29.9
2022-08-11T10:50:43.184Z,29.9
2022-08-11T11:00:45.139Z,30
2022-08-11T11:10:47.155Z,30.7
2022-08-11T11:11:09.084Z,30.7
2022-08-11T11:20:56.118Z,30.5
2022-08-11T11:40:59.951Z,30.1
2022-08-11T11:51:02.206Z,30.2
2022-08-11T12:01:04.702Z,30.7
2022-08-11T12:11:06.471Z,31
2022-08-11T12:21:08.607Z,30.6
2022-08-11T12:31:10.689Z,31.3
2022-08-11T12:41:15.273Z,30.4
2022-08-11T12:51:15.670Z,31.3
2022-08-11T13:01:17.448Z,31.3
2022-08-11T13:11:19.263Z,30.9
2022-08-11T13:21:21.537Z,31.1
2022-08-11T13:31:24.177Z,31.9
2022-08-11T13:41:26.295Z,31.5
2022-08-11T13:51:31.325Z,31.2
2022-08-11T14:02:04.414Z,32.1
2022-08-11T14:12:20.604Z,32.5
2022-08-11T14:21:35.620Z,31.9
2022-08-11T14:31:37.655Z,31.7
2022-08-11T14:42:07.848Z,31.7
2022-08-11T14:51:45.133Z,31
2022-08-11T15:01:43.806Z,31.6
2022-08-11T15:11:46.076Z,31.6
2022-08-11T15:21:47.769Z,31.6
2022-08-11T15:31:50.202Z,31.6
2022-08-11T15:41:54.419Z,31.2
2022-08-11T15:51:54.036Z,31.7
2022-08-11T16:01:56.728Z,31.7
2022-08-11T16:11:58.379Z,31.4
2022-08-11T16:22:01.013Z,30.9
2022-08-11T16:32:03.019Z,30.9
2022-08-11T16:42:04.874Z,30.6
2022-08-11T16:52:06.573Z,30.5
2022-08-11T17:02:09.019Z,30.4
2022-08-11T17:12:10.794Z,30.3
2022-08-11T17:22:13.181Z,30.1
2022-08-11T17:32:15.687Z,30.1
2022-08-11T17:52:19.933Z,29.8
2022-08-11T18:02:21.809Z,29.6
2022-08-11T18:12:24.473Z,29.4
2022-08-11T18:22:27.078Z,29.1
2022-08-11T18:32:39.668Z,28.9
2022-08-11T19:12:38.625Z,27.5
2022-08-11T19:42:45.546Z,26.6
2022-08-11T20:12:51.964Z,25.7
2022-08-11T20:22:54.419Z,25.4
2022-08-11T20:42:59.274Z,24.9
2022-08-11T20:53:01.565Z,24.7
2022-08-11T21:03:03.322Z,24.5
2022-08-11T21:13:24.341Z,24.4
2022-08-11T21:23:08.004Z,23.6
2022-08-11T21:33:09.661Z,23.5
2022-08-11T21:43:11.659Z,23.2
2022-08-11T21:53:13.618Z,22.9
2022-08-11T22:03:15.279Z,22.5
2022-08-11T22:13:17.177Z,22
2022-08-11T22:23:19.186Z,21.6
2022-08-11T22:33:20.934Z,21.2
2022-08-11T22:43:23.255Z,20.9
2022-08-11T22:53:25.857Z,20.6
2022-08-11T23:03:34.361Z,20.5
2022-08-11T23:13:30.009Z,20.5
2022-08-11T23:23:32.603Z,20.5
2022-08-11T23:33:34.600Z,20.5
2022-08-11T23:43:36.401Z,20.4
2022-08-11T23:53:38.327Z,20
